sensor_id;sensor_type;location;lat;lon;timestamp;P1;durP1;ratioP1;P2;durP2;ratioP2
41799;SDS011;27468;47.460;19.034;2023-04-23T00:02:11;10.57;;;4.88;;
41799;SDS011;27468;47.460;19.034;2023-04-23T00:04:39;8.30;;;4.82;;
41799;SDS011;27468;47.460;19.034;2023-04-23T00:07:14;8.20;;;5.00;;
41799;SDS011;27468;47.460;19.034;2023-04-23T00:09:40;8.68;;;5.50;;
41799;SDS011;27468;47.460;19.034;2023-04-23T00:12:07;7.72;;;5.28;;
41799;SDS011;27468;47.460;19.034;2023-04-23T00:14:33;7.63;;;4.60;;
41799;SDS011;27468;47.460;19.034;2023-04-23T00:16:59;8.25;;;5.00;;
41799;SDS011;27468;47.460;19.034;2023-04-23T00:19:25;8.98;;;4.68;;
41799;SDS011;27468;47.460;19.034;2023-04-23T00:21:50;10.70;;;5.68;;
41799;SDS011;27468;47.460;19.034;2023-04-23T00:24:16;9.98;;;5.68;;
41799;SDS011;27468;47.460;19.034;2023-04-23T00:26:41;8.25;;;5.32;;
41799;SDS011;27468;47.460;19.034;2023-04-23T00:29:07;6.82;;;5.00;;
41799;SDS011;27468;47.460;19.034;2023-04-23T00:31:32;7.70;;;5.20;;
41799;SDS011;27468;47.460;19.034;2023-04-23T00:33:58;7.65;;;4.80;;
41799;SDS011;27468;47.460;19.034;2023-04-23T00:36:23;7.75;;;4.60;;
41799;SDS011;27468;47.460;19.034;2023-04-23T00:38:50;8.07;;;4.78;;
41799;SDS011;27468;47.460;19.034;2023-04-23T00:41:15;7.15;;;4.50;;
41799;SDS011;27468;47.460;19.034;2023-04-23T00:43:41;9.68;;;4.75;;
41799;SDS011;27468;47.460;19.034;2023-04-23T00:46:08;11.00;;;5.72;;
41799;SDS011;27468;47.460;19.034;2023-04-23T00:48:34;6.55;;;4.18;;
41799;SDS011;27468;47.460;19.034;2023-04-23T00:51:04;7.72;;;4.70;;
41799;SDS011;27468;47.460;19.034;2023-04-23T00:53:31;8.38;;;4.63;;
41799;SDS011;27468;47.460;19.034;2023-04-23T00:55:57;8.88;;;4.65;;
41799;SDS011;27468;47.460;19.034;2023-04-23T00:58:25;8.07;;;4.47;;
41799;SDS011;27468;47.460;19.034;2023-04-23T01:00:52;6.00;;;4.25;;
41799;SDS011;27468;47.460;19.034;2023-04-23T01:03:17;7.25;;;4.55;;
41799;SDS011;27468;47.460;19.034;2023-04-23T01:05:45;7.93;;;4.70;;
41799;SDS011;27468;47.460;19.034;2023-04-23T01:08:14;8.75;;;4.95;;
41799;SDS011;27468;47.460;19.034;2023-04-23T01:10:41;7.05;;;4.65;;
41799;SDS011;27468;47.460;19.034;2023-04-23T01:13:07;8.15;;;4.88;;
41799;SDS011;27468;47.460;19.034;2023-04-23T01:15:33;6.63;;;4.07;;
41799;SDS011;27468;47.460;19.034;2023-04-23T01:17:59;4.72;;;3.20;;
41799;SDS011;27468;47.460;19.034;2023-04-23T01:20:24;6.22;;;3.78;;
41799;SDS011;27468;47.460;19.034;2023-04-23T01:22:50;5.55;;;3.15;;
41799;SDS011;27468;47.460;19.034;2023-04-23T01:25:15;5.50;;;3.13;;
41799;SDS011;27468;47.460;19.034;2023-04-23T01:27:41;6.40;;;3.42;;
41799;SDS011;27468;47.460;19.034;2023-04-23T01:30:07;5.22;;;2.97;;
41799;SDS011;27468;47.460;19.034;2023-04-23T01:32:33;4.88;;;3.30;;
41799;SDS011;27468;47.460;19.034;2023-04-23T01:34:59;3.38;;;2.95;;
41799;SDS011;27468;47.460;19.034;2023-04-23T01:37:25;6.03;;;3.53;;
41799;SDS011;27468;47.460;19.034;2023-04-23T01:39:53;6.65;;;3.58;;
41799;SDS011;27468;47.460;19.034;2023-04-23T01:42:18;6.22;;;3.30;;
41799;SDS011;27468;47.460;19.034;2023-04-23T01:44:44;6.72;;;3.28;;
41799;SDS011;27468;47.460;19.034;2023-04-23T01:47:09;4.60;;;2.67;;
41799;SDS011;27468;47.460;19.034;2023-04-23T01:49:35;5.15;;;2.95;;
41799;SDS011;27468;47.460;19.034;2023-04-23T01:52:01;3.92;;;2.47;;
41799;SDS011;27468;47.460;19.034;2023-04-23T01:54:26;5.63;;;3.85;;
41799;SDS011;27468;47.460;19.034;2023-04-23T01:56:51;4.75;;;3.03;;
41799;SDS011;27468;47.460;19.034;2023-04-23T01:59:19;4.57;;;2.42;;
41799;SDS011;27468;47.460;19.034;2023-04-23T02:01:46;3.58;;;2.72;;
41799;SDS011;27468;47.460;19.034;2023-04-23T02:04:12;5.65;;;3.08;;
41799;SDS011;27468;47.460;19.034;2023-04-23T02:06:39;6.63;;;3.35;;
41799;SDS011;27468;47.460;19.034;2023-04-23T02:09:06;5.45;;;3.47;;
41799;SDS011;27468;47.460;19.034;2023-04-23T02:11:32;4.90;;;2.88;;
41799;SDS011;27468;47.460;19.034;2023-04-23T02:13:57;5.35;;;3.08;;
41799;SDS011;27468;47.460;19.034;2023-04-23T02:16:23;5.20;;;3.30;;
41799;SDS011;27468;47.460;19.034;2023-04-23T02:18:48;5.30;;;3.38;;
41799;SDS011;27468;47.460;19.034;2023-04-23T02:21:14;4.57;;;3.22;;
41799;SDS011;27468;47.460;19.034;2023-04-23T02:23:40;5.18;;;2.83;;
41799;SDS011;27468;47.460;19.034;2023-04-23T02:26:05;4.82;;;3.17;;
41799;SDS011;27468;47.460;19.034;2023-04-23T02:28:31;5.47;;;2.88;;
41799;SDS011;27468;47.460;19.034;2023-04-23T02:30:57;4.68;;;2.92;;
41799;SDS011;27468;47.460;19.034;2023-04-23T02:33:22;5.25;;;2.60;;
41799;SDS011;27468;47.460;19.034;2023-04-23T02:35:49;4.80;;;3.08;;
41799;SDS011;27468;47.460;19.034;2023-04-23T02:38:15;6.35;;;3.10;;
41799;SDS011;27468;47.460;19.034;2023-04-23T02:40:40;5.07;;;2.80;;
41799;SDS011;27468;47.460;19.034;2023-04-23T02:43:06;4.10;;;2.67;;
41799;SDS011;27468;47.460;19.034;2023-04-23T02:45:31;3.90;;;2.90;;
41799;SDS011;27468;47.460;19.034;2023-04-23T02:47:56;4.70;;;2.70;;
41799;SDS011;27468;47.460;19.034;2023-04-23T02:50:22;5.18;;;2.97;;
41799;SDS011;27468;47.460;19.034;2023-04-23T02:52:47;5.07;;;2.88;;
41799;SDS011;27468;47.460;19.034;2023-04-23T02:55:13;3.95;;;2.58;;
41799;SDS011;27468;47.460;19.034;2023-04-23T02:57:39;4.65;;;2.78;;
41799;SDS011;27468;47.460;19.034;2023-04-23T03:00:05;5.55;;;3.35;;
41799;SDS011;27468;47.460;19.034;2023-04-23T03:02:31;4.82;;;3.15;;
41799;SDS011;27468;47.460;19.034;2023-04-23T03:04:57;5.35;;;3.00;;
41799;SDS011;27468;47.460;19.034;2023-04-23T03:07:22;4.68;;;2.85;;
41799;SDS011;27468;47.460;19.034;2023-04-23T03:09:48;4.80;;;3.13;;
41799;SDS011;27468;47.460;19.034;2023-04-23T03:12:13;5.65;;;3.88;;
41799;SDS011;27468;47.460;19.034;2023-04-23T03:14:39;5.35;;;3.10;;
41799;SDS011;27468;47.460;19.034;2023-04-23T03:17:04;6.38;;;3.80;;
41799;SDS011;27468;47.460;19.034;2023-04-23T03:19:30;4.80;;;2.72;;
41799;SDS011;27468;47.460;19.034;2023-04-23T03:21:56;5.97;;;2.85;;
41799;SDS011;27468;47.460;19.034;2023-04-23T03:24:21;6.30;;;3.20;;
41799;SDS011;27468;47.460;19.034;2023-04-23T03:26:47;3.90;;;2.33;;
41799;SDS011;27468;47.460;19.034;2023-04-23T03:29:12;6.05;;;3.50;;
41799;SDS011;27468;47.460;19.034;2023-04-23T03:31:38;3.88;;;2.67;;
41799;SDS011;27468;47.460;19.034;2023-04-23T03:34:03;5.63;;;3.15;;
41799;SDS011;27468;47.460;19.034;2023-04-23T03:36:29;4.80;;;3.03;;
41799;SDS011;27468;47.460;19.034;2023-04-23T03:38:54;5.63;;;3.08;;
41799;SDS011;27468;47.460;19.034;2023-04-23T03:41:20;5.07;;;3.13;;
41799;SDS011;27468;47.460;19.034;2023-04-23T03:43:45;5.13;;;3.17;;
41799;SDS011;27468;47.460;19.034;2023-04-23T03:46:10;4.22;;;2.88;;
41799;SDS011;27468;47.460;19.034;2023-04-23T03:48:36;6.68;;;3.25;;
41799;SDS011;27468;47.460;19.034;2023-04-23T03:51:01;4.00;;;3.60;;
41799;SDS011;27468;47.460;19.034;2023-04-23T03:53:27;4.93;;;3.10;;
41799;SDS011;27468;47.460;19.034;2023-04-23T03:55:52;6.40;;;3.47;;
41799;SDS011;27468;47.460;19.034;2023-04-23T03:58:18;4.60;;;2.65;;
41799;SDS011;27468;47.460;19.034;2023-04-23T04:00:43;5.40;;;3.30;;
41799;SDS011;27468;47.460;19.034;2023-04-23T04:03:09;5.47;;;3.15;;
41799;SDS011;27468;47.460;19.034;2023-04-23T04:05:34;6.93;;;3.00;;
41799;SDS011;27468;47.460;19.034;2023-04-23T04:08:00;4.28;;;3.03;;
41799;SDS011;27468;47.460;19.034;2023-04-23T04:10:26;5.15;;;2.85;;
41799;SDS011;27468;47.460;19.034;2023-04-23T04:12:51;4.75;;;3.10;;
41799;SDS011;27468;47.460;19.034;2023-04-23T04:15:17;4.70;;;3.20;;
41799;SDS011;27468;47.460;19.034;2023-04-23T04:17:44;5.30;;;3.08;;
41799;SDS011;27468;47.460;19.034;2023-04-23T04:20:10;4.28;;;3.10;;
41799;SDS011;27468;47.460;19.034;2023-04-23T04:22:36;4.32;;;2.67;;
41799;SDS011;27468;47.460;19.034;2023-04-23T04:25:02;6.00;;;3.45;;
41799;SDS011;27468;47.460;19.034;2023-04-23T04:27:29;5.45;;;2.97;;
41799;SDS011;27468;47.460;19.034;2023-04-23T04:29:57;5.75;;;3.08;;
41799;SDS011;27468;47.460;19.034;2023-04-23T04:32:23;4.15;;;2.80;;
41799;SDS011;27468;47.460;19.034;2023-04-23T04:34:48;4.88;;;3.08;;
41799;SDS011;27468;47.460;19.034;2023-04-23T04:37:14;4.03;;;2.80;;
41799;SDS011;27468;47.460;19.034;2023-04-23T04:39:40;6.30;;;2.83;;
41799;SDS011;27468;47.460;19.034;2023-04-23T04:42:06;4.28;;;2.58;;
41799;SDS011;27468;47.460;19.034;2023-04-23T04:44:32;5.22;;;3.53;;
41799;SDS011;27468;47.460;19.034;2023-04-23T04:46:57;5.47;;;2.95;;
41799;SDS011;27468;47.460;19.034;2023-04-23T04:49:23;4.72;;;2.72;;
41799;SDS011;27468;47.460;19.034;2023-04-23T04:51:48;7.32;;;3.25;;
41799;SDS011;27468;47.460;19.034;2023-04-23T04:54:14;7.55;;;4.63;;
41799;SDS011;27468;47.460;19.034;2023-04-23T04:56:39;11.15;;;4.03;;
41799;SDS011;27468;47.460;19.034;2023-04-23T04:59:05;5.72;;;3.35;;
41799;SDS011;27468;47.460;19.034;2023-04-23T05:01:30;5.78;;;3.38;;
41799;SDS011;27468;47.460;19.034;2023-04-23T05:03:57;4.80;;;3.38;;
41799;SDS011;27468;47.460;19.034;2023-04-23T05:06:23;4.68;;;3.00;;
41799;SDS011;27468;47.460;19.034;2023-04-23T05:08:48;8.60;;;3.95;;
41799;SDS011;27468;47.460;19.034;2023-04-23T05:11:17;5.22;;;3.75;;
41799;SDS011;27468;47.460;19.034;2023-04-23T05:13:44;5.10;;;2.90;;
41799;SDS011;27468;47.460;19.034;2023-04-23T05:16:10;6.30;;;3.65;;
41799;SDS011;27468;47.460;19.034;2023-04-23T05:18:36;3.55;;;2.95;;
41799;SDS011;27468;47.460;19.034;2023-04-23T05:21:02;6.13;;;3.40;;
41799;SDS011;27468;47.460;19.034;2023-04-23T05:23:28;5.55;;;3.78;;
41799;SDS011;27468;47.460;19.034;2023-04-23T05:25:53;6.45;;;3.50;;
41799;SDS011;27468;47.460;19.034;2023-04-23T05:28:21;5.47;;;3.42;;
41799;SDS011;27468;47.460;19.034;2023-04-23T05:30:46;4.80;;;3.05;;
41799;SDS011;27468;47.460;19.034;2023-04-23T05:33:12;5.40;;;3.00;;
41799;SDS011;27468;47.460;19.034;2023-04-23T05:35:37;5.18;;;3.53;;
41799;SDS011;27468;47.460;19.034;2023-04-23T05:38:03;4.57;;;3.80;;
41799;SDS011;27468;47.460;19.034;2023-04-23T05:40:30;6.85;;;3.97;;
41799;SDS011;27468;47.460;19.034;2023-04-23T05:42:57;5.07;;;3.47;;
41799;SDS011;27468;47.460;19.034;2023-04-23T05:45:23;5.45;;;3.25;;
41799;SDS011;27468;47.460;19.034;2023-04-23T05:47:48;5.30;;;4.00;;
41799;SDS011;27468;47.460;19.034;2023-04-23T05:50:13;5.35;;;4.13;;
41799;SDS011;27468;47.460;19.034;2023-04-23T05:52:39;8.15;;;3.75;;
41799;SDS011;27468;47.460;19.034;2023-04-23T05:55:05;6.55;;;3.90;;
41799;SDS011;27468;47.460;19.034;2023-04-23T05:57:32;5.22;;;3.33;;
41799;SDS011;27468;47.460;19.034;2023-04-23T05:59:57;5.47;;;3.30;;
41799;SDS011;27468;47.460;19.034;2023-04-23T06:02:23;7.05;;;3.70;;
41799;SDS011;27468;47.460;19.034;2023-04-23T06:04:49;6.00;;;3.47;;
41799;SDS011;27468;47.460;19.034;2023-04-23T06:07:14;6.45;;;3.55;;
41799;SDS011;27468;47.460;19.034;2023-04-23T06:09:40;5.50;;;3.63;;
41799;SDS011;27468;47.460;19.034;2023-04-23T06:12:05;5.82;;;2.88;;
41799;SDS011;27468;47.460;19.034;2023-04-23T06:14:31;6.38;;;3.38;;
41799;SDS011;27468;47.460;19.034;2023-04-23T06:16:56;7.30;;;3.40;;
41799;SDS011;27468;47.460;19.034;2023-04-23T06:19:22;5.38;;;3.22;;
41799;SDS011;27468;47.460;19.034;2023-04-23T06:21:51;4.80;;;3.20;;
41799;SDS011;27468;47.460;19.034;2023-04-23T06:24:17;4.43;;;2.53;;
41799;SDS011;27468;47.460;19.034;2023-04-23T06:26:42;4.68;;;2.85;;
41799;SDS011;27468;47.460;19.034;2023-04-23T06:29:08;5.88;;;3.30;;
41799;SDS011;27468;47.460;19.034;2023-04-23T06:31:33;5.53;;;3.17;;
41799;SDS011;27468;47.460;19.034;2023-04-23T06:34:00;4.57;;;3.22;;
41799;SDS011;27468;47.460;19.034;2023-04-23T06:36:25;8.18;;;3.22;;
41799;SDS011;27468;47.460;19.034;2023-04-23T06:38:52;5.30;;;3.30;;
41799;SDS011;27468;47.460;19.034;2023-04-23T06:41:18;5.65;;;3.67;;
41799;SDS011;27468;47.460;19.034;2023-04-23T06:43:44;6.78;;;3.55;;
41799;SDS011;27468;47.460;19.034;2023-04-23T06:46:10;5.55;;;3.03;;
41799;SDS011;27468;47.460;19.034;2023-04-23T06:48:35;4.68;;;3.15;;
41799;SDS011;27468;47.460;19.034;2023-04-23T06:51:01;5.68;;;3.83;;
41799;SDS011;27468;47.460;19.034;2023-04-23T06:53:27;4.57;;;3.10;;
41799;SDS011;27468;47.460;19.034;2023-04-23T06:55:52;4.93;;;3.30;;
41799;SDS011;27468;47.460;19.034;2023-04-23T06:58:18;4.55;;;3.70;;
41799;SDS011;27468;47.460;19.034;2023-04-23T07:00:43;6.53;;;3.15;;
41799;SDS011;27468;47.460;19.034;2023-04-23T07:03:09;5.85;;;3.25;;
41799;SDS011;27468;47.460;19.034;2023-04-23T07:05:35;7.72;;;3.70;;
41799;SDS011;27468;47.460;19.034;2023-04-23T07:08:01;4.65;;;3.00;;
41799;SDS011;27468;47.460;19.034;2023-04-23T07:10:26;6.55;;;3.65;;
41799;SDS011;27468;47.460;19.034;2023-04-23T07:12:51;5.88;;;3.28;;
41799;SDS011;27468;47.460;19.034;2023-04-23T07:15:17;5.82;;;4.30;;
41799;SDS011;27468;47.460;19.034;2023-04-23T07:17:42;6.05;;;3.70;;
41799;SDS011;27468;47.460;19.034;2023-04-23T07:20:08;5.30;;;3.28;;
41799;SDS011;27468;47.460;19.034;2023-04-23T07:22:33;4.68;;;3.38;;
41799;SDS011;27468;47.460;19.034;2023-04-23T07:24:59;4.57;;;3.28;;
41799;SDS011;27468;47.460;19.034;2023-04-23T07:27:25;4.55;;;3.00;;
41799;SDS011;27468;47.460;19.034;2023-04-23T07:29:50;6.53;;;3.40;;
41799;SDS011;27468;47.460;19.034;2023-04-23T07:32:16;6.03;;;3.53;;
41799;SDS011;27468;47.460;19.034;2023-04-23T07:34:42;4.93;;;2.95;;
41799;SDS011;27468;47.460;19.034;2023-04-23T07:37:07;5.40;;;2.88;;
41799;SDS011;27468;47.460;19.034;2023-04-23T07:39:33;3.33;;;2.72;;
41799;SDS011;27468;47.460;19.034;2023-04-23T07:41:59;5.93;;;2.83;;
41799;SDS011;27468;47.460;19.034;2023-04-23T07:44:25;5.57;;;3.55;;
41799;SDS011;27468;47.460;19.034;2023-04-23T07:46:51;4.18;;;3.28;;
41799;SDS011;27468;47.460;19.034;2023-04-23T07:49:16;4.32;;;2.40;;
41799;SDS011;27468;47.460;19.034;2023-04-23T07:51:42;3.22;;;2.60;;
41799;SDS011;27468;47.460;19.034;2023-04-23T07:54:07;4.72;;;2.40;;
41799;SDS011;27468;47.460;19.034;2023-04-23T07:56:33;3.33;;;2.80;;
41799;SDS011;27468;47.460;19.034;2023-04-23T07:59:00;3.72;;;2.80;;
41799;SDS011;27468;47.460;19.034;2023-04-23T08:01:26;4.35;;;2.45;;
41799;SDS011;27468;47.460;19.034;2023-04-23T08:03:51;3.70;;;2.30;;
41799;SDS011;27468;47.460;19.034;2023-04-23T08:06:19;2.63;;;2.40;;
41799;SDS011;27468;47.460;19.034;2023-04-23T08:08:45;4.25;;;2.70;;
41799;SDS011;27468;47.460;19.034;2023-04-23T08:11:10;4.38;;;2.67;;
41799;SDS011;27468;47.460;19.034;2023-04-23T08:13:36;4.47;;;2.33;;
41799;SDS011;27468;47.460;19.034;2023-04-23T08:16:01;3.28;;;2.03;;
41799;SDS011;27468;47.460;19.034;2023-04-23T08:18:27;4.07;;;2.35;;
41799;SDS011;27468;47.460;19.034;2023-04-23T08:20:52;3.80;;;2.40;;
41799;SDS011;27468;47.460;19.034;2023-04-23T08:23:18;2.90;;;1.90;;
41799;SDS011;27468;47.460;19.034;2023-04-23T08:25:43;5.25;;;3.03;;
41799;SDS011;27468;47.460;19.034;2023-04-23T08:28:09;2.95;;;2.03;;
41799;SDS011;27468;47.460;19.034;2023-04-23T08:30:34;3.05;;;2.25;;
41799;SDS011;27468;47.460;19.034;2023-04-23T08:33:00;3.75;;;2.33;;
41799;SDS011;27468;47.460;19.034;2023-04-23T08:35:25;5.70;;;2.35;;
41799;SDS011;27468;47.460;19.034;2023-04-23T08:37:51;3.63;;;2.38;;
41799;SDS011;27468;47.460;19.034;2023-04-23T08:40:16;2.97;;;2.10;;
41799;SDS011;27468;47.460;19.034;2023-04-23T08:45:22;2.80;;;2.33;;
41799;SDS011;27468;47.460;19.034;2023-04-23T08:47:48;2.67;;;2.00;;
41799;SDS011;27468;47.460;19.034;2023-04-23T08:50:16;2.72;;;2.08;;
41799;SDS011;27468;47.460;19.034;2023-04-23T08:52:48;3.13;;;2.42;;
41799;SDS011;27468;47.460;19.034;2023-04-23T08:55:16;3.90;;;2.17;;
41799;SDS011;27468;47.460;19.034;2023-04-23T08:57:43;3.22;;;2.47;;
41799;SDS011;27468;47.460;19.034;2023-04-23T09:00:10;2.35;;;2.08;;
41799;SDS011;27468;47.460;19.034;2023-04-23T09:02:41;2.90;;;1.85;;
41799;SDS011;27468;47.460;19.034;2023-04-23T09:05:07;2.83;;;1.98;;
41799;SDS011;27468;47.460;19.034;2023-04-23T09:07:34;2.88;;;2.00;;
41799;SDS011;27468;47.460;19.034;2023-04-23T09:10:03;2.67;;;1.70;;
41799;SDS011;27468;47.460;19.034;2023-04-23T09:12:30;6.25;;;2.10;;
41799;SDS011;27468;47.460;19.034;2023-04-23T09:14:58;2.55;;;1.70;;
41799;SDS011;27468;47.460;19.034;2023-04-23T09:17:27;2.65;;;2.05;;
41799;SDS011;27468;47.460;19.034;2023-04-23T09:19:53;2.65;;;1.48;;
41799;SDS011;27468;47.460;19.034;2023-04-23T09:25:05;2.20;;;1.70;;
41799;SDS011;27468;47.460;19.034;2023-04-23T09:27:32;3.22;;;1.77;;
41799;SDS011;27468;47.460;19.034;2023-04-23T09:29:59;2.80;;;1.85;;
41799;SDS011;27468;47.460;19.034;2023-04-23T09:32:32;2.17;;;1.65;;
41799;SDS011;27468;47.460;19.034;2023-04-23T09:34:58;2.03;;;1.70;;
41799;SDS011;27468;47.460;19.034;2023-04-23T09:37:26;2.85;;;2.05;;
41799;SDS011;27468;47.460;19.034;2023-04-23T09:39:52;2.42;;;2.00;;
41799;SDS011;27468;47.460;19.034;2023-04-23T09:42:22;1.88;;;1.58;;
41799;SDS011;27468;47.460;19.034;2023-04-23T09:44:58;2.22;;;1.90;;
41799;SDS011;27468;47.460;19.034;2023-04-23T09:47:30;2.90;;;1.75;;
41799;SDS011;27468;47.460;19.034;2023-04-23T09:49:56;2.65;;;1.70;;
41799;SDS011;27468;47.460;19.034;2023-04-23T09:52:23;2.67;;;1.83;;
41799;SDS011;27468;47.460;19.034;2023-04-23T09:54:48;4.93;;;2.10;;
41799;SDS011;27468;47.460;19.034;2023-04-23T09:57:15;2.60;;;2.40;;
41799;SDS011;27468;47.460;19.034;2023-04-23T09:59:40;2.17;;;1.95;;
41799;SDS011;27468;47.460;19.034;2023-04-23T10:02:08;2.17;;;1.98;;
41799;SDS011;27468;47.460;19.034;2023-04-23T10:04:34;3.45;;;1.98;;
41799;SDS011;27468;47.460;19.034;2023-04-23T10:07:01;2.47;;;1.65;;
41799;SDS011;27468;47.460;19.034;2023-04-23T10:09:29;2.80;;;1.80;;
41799;SDS011;27468;47.460;19.034;2023-04-23T10:11:58;2.97;;;2.20;;
41799;SDS011;27468;47.460;19.034;2023-04-23T10:14:26;3.28;;;1.90;;
41799;SDS011;27468;47.460;19.034;2023-04-23T10:17:00;2.13;;;1.92;;
41799;SDS011;27468;47.460;19.034;2023-04-23T10:19:27;3.63;;;1.88;;
41799;SDS011;27468;47.460;19.034;2023-04-23T10:21:54;2.75;;;1.73;;
41799;SDS011;27468;47.460;19.034;2023-04-23T10:24:24;1.67;;;1.58;;
41799;SDS011;27468;47.460;19.034;2023-04-23T10:26:58;2.38;;;2.10;;
41799;SDS011;27468;47.460;19.034;2023-04-23T10:29:28;3.47;;;1.70;;
41799;SDS011;27468;47.460;19.034;2023-04-23T10:31:57;1.63;;;1.35;;
41799;SDS011;27468;47.460;19.034;2023-04-23T10:34:30;4.13;;;2.28;;
41799;SDS011;27468;47.460;19.034;2023-04-23T10:37:00;1.52;;;1.38;;
41799;SDS011;27468;47.460;19.034;2023-04-23T10:39:31;2.40;;;1.50;;
41799;SDS011;27468;47.460;19.034;2023-04-23T10:41:58;2.10;;;1.48;;
41799;SDS011;27468;47.460;19.034;2023-04-23T10:44:32;3.10;;;1.80;;
41799;SDS011;27468;47.460;19.034;2023-04-23T10:47:00;3.38;;;1.92;;
41799;SDS011;27468;47.460;19.034;2023-04-23T10:49:29;2.40;;;2.17;;
41799;SDS011;27468;47.460;19.034;2023-04-23T10:52:00;2.40;;;2.00;;
41799;SDS011;27468;47.460;19.034;2023-04-23T10:54:28;2.38;;;1.75;;
41799;SDS011;27468;47.460;19.034;2023-04-23T10:57:00;2.08;;;1.60;;
41799;SDS011;27468;47.460;19.034;2023-04-23T10:59:31;1.83;;;1.40;;
41799;SDS011;27468;47.460;19.034;2023-04-23T11:01:58;2.47;;;1.90;;
41799;SDS011;27468;47.460;19.034;2023-04-23T11:04:44;3.00;;;1.60;;
41799;SDS011;27468;47.460;19.034;2023-04-23T11:07:23;3.20;;;2.30;;
41799;SDS011;27468;47.460;19.034;2023-04-23T11:09:50;2.78;;;1.63;;
41799;SDS011;27468;47.460;19.034;2023-04-23T11:14:50;3.15;;;1.33;;
41799;SDS011;27468;47.460;19.034;2023-04-23T11:17:17;2.70;;;1.52;;
41799;SDS011;27468;47.460;19.034;2023-04-23T11:22:48;2.63;;;1.35;;
41799;SDS011;27468;47.460;19.034;2023-04-23T11:25:22;2.17;;;1.88;;
41799;SDS011;27468;47.460;19.034;2023-04-23T11:27:50;2.92;;;1.80;;
41799;SDS011;27468;47.460;19.034;2023-04-23T11:30:21;3.10;;;1.73;;
41799;SDS011;27468;47.460;19.034;2023-04-23T11:32:49;2.13;;;1.63;;
41799;SDS011;27468;47.460;19.034;2023-04-23T11:35:17;2.70;;;1.67;;
41799;SDS011;27468;47.460;19.034;2023-04-23T11:37:45;1.83;;;1.60;;
41799;SDS011;27468;47.460;19.034;2023-04-23T11:40:13;1.75;;;1.45;;
41799;SDS011;27468;47.460;19.034;2023-04-23T11:42:43;3.28;;;2.28;;
41799;SDS011;27468;47.460;19.034;2023-04-23T11:45:14;2.30;;;1.67;;
41799;SDS011;27468;47.460;19.034;2023-04-23T11:47:39;2.03;;;1.38;;
41799;SDS011;27468;47.460;19.034;2023-04-23T11:50:05;3.00;;;1.63;;
41799;SDS011;27468;47.460;19.034;2023-04-23T11:52:31;3.13;;;1.65;;
41799;SDS011;27468;47.460;19.034;2023-04-23T11:55:01;2.20;;;1.92;;
41799;SDS011;27468;47.460;19.034;2023-04-23T11:57:27;2.10;;;1.70;;
41799;SDS011;27468;47.460;19.034;2023-04-23T11:59:53;1.92;;;1.50;;
41799;SDS011;27468;47.460;19.034;2023-04-23T12:02:18;2.35;;;1.58;;
41799;SDS011;27468;47.460;19.034;2023-04-23T12:04:47;1.83;;;1.40;;
41799;SDS011;27468;47.460;19.034;2023-04-23T12:07:13;2.85;;;1.60;;
41799;SDS011;27468;47.460;19.034;2023-04-23T12:09:39;2.60;;;2.00;;
41799;SDS011;27468;47.460;19.034;2023-04-23T12:12:04;1.98;;;1.73;;
41799;SDS011;27468;47.460;19.034;2023-04-23T12:14:30;2.03;;;1.88;;
41799;SDS011;27468;47.460;19.034;2023-04-23T12:16:57;1.73;;;1.45;;
41799;SDS011;27468;47.460;19.034;2023-04-23T12:19:32;3.97;;;1.77;;
41799;SDS011;27468;47.460;19.034;2023-04-23T12:21:58;2.38;;;1.73;;
41799;SDS011;27468;47.460;19.034;2023-04-23T12:24:26;2.47;;;1.65;;
41799;SDS011;27468;47.460;19.034;2023-04-23T12:26:58;3.22;;;2.00;;
41799;SDS011;27468;47.460;19.034;2023-04-23T12:29:25;3.10;;;2.45;;
41799;SDS011;27468;47.460;19.034;2023-04-23T12:31:51;1.67;;;1.48;;
41799;SDS011;27468;47.460;19.034;2023-04-23T12:34:20;1.50;;;1.40;;
41799;SDS011;27468;47.460;19.034;2023-04-23T12:39:19;2.47;;;1.98;;
41799;SDS011;27468;47.460;19.034;2023-04-23T12:41:49;2.85;;;1.70;;
41799;SDS011;27468;47.460;19.034;2023-04-23T12:44:16;2.95;;;2.17;;
41799;SDS011;27468;47.460;19.034;2023-04-23T12:46:41;3.03;;;2.20;;
41799;SDS011;27468;47.460;19.034;2023-04-23T12:49:07;1.63;;;1.52;;
41799;SDS011;27468;47.460;19.034;2023-04-23T12:51:32;1.95;;;1.77;;
41799;SDS011;27468;47.460;19.034;2023-04-23T12:53:57;1.63;;;1.52;;
41799;SDS011;27468;47.460;19.034;2023-04-23T12:56:23;1.92;;;1.55;;
41799;SDS011;27468;47.460;19.034;2023-04-23T12:58:50;1.90;;;1.40;;
41799;SDS011;27468;47.460;19.034;2023-04-23T13:01:15;1.95;;;1.70;;
41799;SDS011;27468;47.460;19.034;2023-04-23T13:03:41;1.60;;;1.35;;
41799;SDS011;27468;47.460;19.034;2023-04-23T13:06:06;2.75;;;1.90;;
41799;SDS011;27468;47.460;19.034;2023-04-23T13:08:32;3.35;;;1.67;;
41799;SDS011;27468;47.460;19.034;2023-04-23T13:10:58;2.05;;;1.40;;
41799;SDS011;27468;47.460;19.034;2023-04-23T13:13:24;1.60;;;1.50;;
41799;SDS011;27468;47.460;19.034;2023-04-23T13:15:51;2.00;;;1.60;;
41799;SDS011;27468;47.460;19.034;2023-04-23T13:18:17;1.55;;;1.42;;
41799;SDS011;27468;47.460;19.034;2023-04-23T13:20:42;2.95;;;2.03;;
41799;SDS011;27468;47.460;19.034;2023-04-23T13:23:08;3.10;;;2.00;;
41799;SDS011;27468;47.460;19.034;2023-04-23T13:25:35;2.10;;;1.73;;
41799;SDS011;27468;47.460;19.034;2023-04-23T13:28:00;1.67;;;1.40;;
41799;SDS011;27468;47.460;19.034;2023-04-23T13:30:26;2.25;;;1.92;;
41799;SDS011;27468;47.460;19.034;2023-04-23T13:32:51;2.40;;;1.92;;
41799;SDS011;27468;47.460;19.034;2023-04-23T13:35:17;3.65;;;1.67;;
41799;SDS011;27468;47.460;19.034;2023-04-23T13:37:43;2.13;;;1.40;;
41799;SDS011;27468;47.460;19.034;2023-04-23T13:40:08;2.00;;;1.23;;
41799;SDS011;27468;47.460;19.034;2023-04-23T13:42:34;2.28;;;1.60;;
41799;SDS011;27468;47.460;19.034;2023-04-23T13:45:00;1.67;;;1.50;;
41799;SDS011;27468;47.460;19.034;2023-04-23T13:47:28;2.47;;;1.63;;
41799;SDS011;27468;47.460;19.034;2023-04-23T13:49:57;2.80;;;1.70;;
41799;SDS011;27468;47.460;19.034;2023-04-23T13:52:23;1.35;;;1.25;;
41799;SDS011;27468;47.460;19.034;2023-04-23T13:54:48;2.60;;;2.03;;
41799;SDS011;27468;47.460;19.034;2023-04-23T13:57:15;1.80;;;1.40;;
41799;SDS011;27468;47.460;19.034;2023-04-23T13:59:40;2.88;;;1.83;;
41799;SDS011;27468;47.460;19.034;2023-04-23T14:02:06;2.05;;;1.50;;
41799;SDS011;27468;47.460;19.034;2023-04-23T14:04:31;1.63;;;1.50;;
41799;SDS011;27468;47.460;19.034;2023-04-23T14:06:57;2.08;;;1.63;;
41799;SDS011;27468;47.460;19.034;2023-04-23T14:09:22;1.60;;;1.40;;
41799;SDS011;27468;47.460;19.034;2023-04-23T14:11:48;2.53;;;1.92;;
41799;SDS011;27468;47.460;19.034;2023-04-23T14:14:13;2.30;;;1.90;;
41799;SDS011;27468;47.460;19.034;2023-04-23T14:16:39;1.88;;;1.60;;
41799;SDS011;27468;47.460;19.034;2023-04-23T14:19:04;2.75;;;1.70;;
41799;SDS011;27468;47.460;19.034;2023-04-23T14:21:30;2.35;;;1.70;;
41799;SDS011;27468;47.460;19.034;2023-04-23T14:26:42;2.13;;;1.70;;
41799;SDS011;27468;47.460;19.034;2023-04-23T14:29:09;1.95;;;1.75;;
41799;SDS011;27468;47.460;19.034;2023-04-23T14:31:43;2.97;;;2.13;;
41799;SDS011;27468;47.460;19.034;2023-04-23T14:34:08;2.58;;;1.80;;
41799;SDS011;27468;47.460;19.034;2023-04-23T14:36:34;1.92;;;1.70;;
41799;SDS011;27468;47.460;19.034;2023-04-23T14:39:00;3.55;;;1.70;;
41799;SDS011;27468;47.460;19.034;2023-04-23T14:41:29;1.88;;;1.67;;
41799;SDS011;27468;47.460;19.034;2023-04-23T14:43:55;2.15;;;1.73;;
41799;SDS011;27468;47.460;19.034;2023-04-23T14:46:21;2.55;;;1.88;;